Terminal Aerodrome Forecast
Issued by NWS

Home | Current Version | Previous Version | Text Only | Print | Product List | Glossary On
Versions: 1 2 3 4 5 6 7 8 9 10 11 12 13 14 15 16 17 18 19 20 21 22 23 24 25 26 27 28 29
000
FTUS45 KREV 222300
TAFTRK
TAF
KTRK 222339Z 2300/2324 28010G18KT 3/4SM HZ FU SCT015 OVC030
     FM230300 VRB03KT 4SM HZ SCT030 SCT180
     FM232200 23012KT 2SM FU HZ SCT180
      AMD NOT SKED 2302/2312=

USA.gov is the U.S. government's official web portal to all federal, state and local government web resources and services.